sensor_id;sensor_type;location;lat;lon;timestamp;temperature;humidity
7936;DHT22;4013;49.744;8.118;2023-04-01T00:02:03;10.50;99.90
7936;DHT22;4013;49.744;8.118;2023-04-01T00:04:30;10.50;99.90
7936;DHT22;4013;49.744;8.118;2023-04-01T00:06:57;10.40;99.90
7936;DHT22;4013;49.744;8.118;2023-04-01T00:09:26;10.40;99.90
7936;DHT22;4013;49.744;8.118;2023-04-01T00:11:53;10.50;99.90
7936;DHT22;4013;49.744;8.118;2023-04-01T00:14:20;10.50;99.90
7936;DHT22;4013;49.744;8.118;2023-04-01T00:16:47;10.50;99.90
7936;DHT22;4013;49.744;8.118;2023-04-01T00:19:14;10.50;99.90
7936;DHT22;4013;49.744;8.118;2023-04-01T00:21:41;10.50;99.90
7936;DHT22;4013;49.744;8.118;2023-04-01T00:24:08;10.50;99.90
7936;DHT22;4013;49.744;8.118;2023-04-01T00:26:36;10.50;99.90
7936;DHT22;4013;49.744;8.118;2023-04-01T00:29:03;10.40;99.90
7936;DHT22;4013;49.744;8.118;2023-04-01T00:31:31;10.50;99.90
7936;DHT22;4013;49.744;8.118;2023-04-01T00:33:58;10.50;99.90
7936;DHT22;4013;49.744;8.118;2023-04-01T00:36:25;10.50;99.90
7936;DHT22;4013;49.744;8.118;2023-04-01T00:38:52;10.50;99.90
7936;DHT22;4013;49.744;8.118;2023-04-01T00:41:19;10.50;99.90
7936;DHT22;4013;49.744;8.118;2023-04-01T00:43:50;10.50;99.90
7936;DHT22;4013;49.744;8.118;2023-04-01T00:46:17;10.50;99.90
7936;DHT22;4013;49.744;8.118;2023-04-01T00:48:48;10.50;99.90
7936;DHT22;4013;49.744;8.118;2023-04-01T00:51:18;10.50;99.90
7936;DHT22;4013;49.744;8.118;2023-04-01T00:53:48;10.50;99.90
7936;DHT22;4013;49.744;8.118;2023-04-01T00:56:19;10.50;99.90
7936;DHT22;4013;49.744;8.118;2023-04-01T00:59:04;10.50;99.90
7936;DHT22;4013;49.744;8.118;2023-04-01T01:01:34;10.50;99.90
7936;DHT22;4013;49.744;8.118;2023-04-01T01:04:02;10.40;99.90
7936;DHT22;4013;49.744;8.118;2023-04-01T01:06:38;10.40;99.90
7936;DHT22;4013;49.744;8.118;2023-04-01T01:09:13;10.40;99.90
7936;DHT22;4013;49.744;8.118;2023-04-01T01:11:43;10.40;99.90
7936;DHT22;4013;49.744;8.118;2023-04-01T01:14:24;10.40;99.90
7936;DHT22;4013;49.744;8.118;2023-04-01T01:16:56;10.30;99.90
7936;DHT22;4013;49.744;8.118;2023-04-01T01:19:52;10.40;99.90
7936;DHT22;4013;49.744;8.118;2023-04-01T01:22:31;10.30;99.90
7936;DHT22;4013;49.744;8.118;2023-04-01T01:25:13;10.30;99.90
7936;DHT22;4013;49.744;8.118;2023-04-01T01:27:49;10.40;99.90
7936;DHT22;4013;49.744;8.118;2023-04-01T01:30:32;10.40;99.90
7936;DHT22;4013;49.744;8.118;2023-04-01T01:33:26;10.40;99.90
7936;DHT22;4013;49.744;8.118;2023-04-01T01:35:59;10.30;99.90
7936;DHT22;4013;49.744;8.118;2023-04-01T01:38:31;10.30;99.90
7936;DHT22;4013;49.744;8.118;2023-04-01T01:41:00;10.30;99.90
7936;DHT22;4013;49.744;8.118;2023-04-01T01:43:31;10.30;99.90
7936;DHT22;4013;49.744;8.118;2023-04-01T01:46:03;10.30;99.90
7936;DHT22;4013;49.744;8.118;2023-04-01T01:48:34;10.30;99.90
7936;DHT22;4013;49.744;8.118;2023-04-01T01:51:03;10.30;99.90
7936;DHT22;4013;49.744;8.118;2023-04-01T01:53:30;10.30;99.90
7936;DHT22;4013;49.744;8.118;2023-04-01T01:55:57;10.30;99.90
7936;DHT22;4013;49.744;8.118;2023-04-01T01:58:27;10.20;99.90
7936;DHT22;4013;49.744;8.118;2023-04-01T02:00:58;10.20;99.90
7936;DHT22;4013;49.744;8.118;2023-04-01T02:03:28;10.10;99.90
7936;DHT22;4013;49.744;8.118;2023-04-01T02:05:59;10.00;99.90
7936;DHT22;4013;49.744;8.118;2023-04-01T02:08:33;10.00;99.90
7936;DHT22;4013;49.744;8.118;2023-04-01T02:11:03;10.00;99.90
7936;DHT22;4013;49.744;8.118;2023-04-01T02:13:35;9.90;99.90
7936;DHT22;4013;49.744;8.118;2023-04-01T02:16:08;9.90;99.90
7936;DHT22;4013;49.744;8.118;2023-04-01T02:18:38;9.90;99.90
7936;DHT22;4013;49.744;8.118;2023-04-01T02:21:07;9.90;99.90
7936;DHT22;4013;49.744;8.118;2023-04-01T02:23:36;9.90;99.90
7936;DHT22;4013;49.744;8.118;2023-04-01T02:26:05;9.90;99.90
7936;DHT22;4013;49.744;8.118;2023-04-01T02:28:33;9.90;99.90
7936;DHT22;4013;49.744;8.118;2023-04-01T02:31:01;9.90;99.90
7936;DHT22;4013;49.744;8.118;2023-04-01T02:33:29;9.90;99.90
7936;DHT22;4013;49.744;8.118;2023-04-01T02:35:57;9.90;99.90
7936;DHT22;4013;49.744;8.118;2023-04-01T02:38:24;10.00;99.90
7936;DHT22;4013;49.744;8.118;2023-04-01T02:40:58;10.00;99.90
7936;DHT22;4013;49.744;8.118;2023-04-01T02:43:26;10.00;99.90
7936;DHT22;4013;49.744;8.118;2023-04-01T02:45:53;10.00;99.90
7936;DHT22;4013;49.744;8.118;2023-04-01T02:48:20;10.00;99.90
7936;DHT22;4013;49.744;8.118;2023-04-01T02:50:47;10.00;99.90
7936;DHT22;4013;49.744;8.118;2023-04-01T02:53:14;10.00;99.90
7936;DHT22;4013;49.744;8.118;2023-04-01T02:55:41;10.00;99.90
7936;DHT22;4013;49.744;8.118;2023-04-01T02:58:09;10.00;99.90
7936;DHT22;4013;49.744;8.118;2023-04-01T03:00:37;9.90;99.90
7936;DHT22;4013;49.744;8.118;2023-04-01T03:03:04;9.90;99.90
7936;DHT22;4013;49.744;8.118;2023-04-01T03:05:31;9.90;99.90
7936;DHT22;4013;49.744;8.118;2023-04-01T03:07:58;9.90;99.90
7936;DHT22;4013;49.744;8.118;2023-04-01T03:10:25;9.90;99.90
7936;DHT22;4013;49.744;8.118;2023-04-01T03:12:52;10.00;99.90
7936;DHT22;4013;49.744;8.118;2023-04-01T03:15:20;10.00;99.90
7936;DHT22;4013;49.744;8.118;2023-04-01T03:17:47;9.90;99.90
7936;DHT22;4013;49.744;8.118;2023-04-01T03:20:15;10.00;99.90
7936;DHT22;4013;49.744;8.118;2023-04-01T03:22:42;10.00;99.90
7936;DHT22;4013;49.744;8.118;2023-04-01T03:25:10;10.10;99.90
7936;DHT22;4013;49.744;8.118;2023-04-01T03:27:37;10.10;99.90
7936;DHT22;4013;49.744;8.118;2023-04-01T03:30:05;10.10;99.90
7936;DHT22;4013;49.744;8.118;2023-04-01T03:32:33;10.10;99.90
7936;DHT22;4013;49.744;8.118;2023-04-01T03:35:00;10.10;99.90
7936;DHT22;4013;49.744;8.118;2023-04-01T03:37:27;10.10;99.90
7936;DHT22;4013;49.744;8.118;2023-04-01T03:39:54;10.10;99.90
7936;DHT22;4013;49.744;8.118;2023-04-01T03:42:21;10.10;99.90
7936;DHT22;4013;49.744;8.118;2023-04-01T03:44:48;10.10;99.90
7936;DHT22;4013;49.744;8.118;2023-04-01T03:47:15;10.10;99.90
7936;DHT22;4013;49.744;8.118;2023-04-01T03:49:43;10.10;99.90
7936;DHT22;4013;49.744;8.118;2023-04-01T03:52:11;10.10;99.90
7936;DHT22;4013;49.744;8.118;2023-04-01T03:54:38;10.10;99.90
7936;DHT22;4013;49.744;8.118;2023-04-01T03:57:05;10.00;99.90
7936;DHT22;4013;49.744;8.118;2023-04-01T03:59:32;10.10;99.90
7936;DHT22;4013;49.744;8.118;2023-04-01T04:01:59;10.00;99.90
7936;DHT22;4013;49.744;8.118;2023-04-01T04:04:26;10.00;99.90
7936;DHT22;4013;49.744;8.118;2023-04-01T04:06:55;10.00;99.90
7936;DHT22;4013;49.744;8.118;2023-04-01T04:09:22;10.00;99.90
7936;DHT22;4013;49.744;8.118;2023-04-01T04:11:49;10.00;99.90
7936;DHT22;4013;49.744;8.118;2023-04-01T04:14:16;10.00;99.90
7936;DHT22;4013;49.744;8.118;2023-04-01T04:16:43;10.10;99.90
7936;DHT22;4013;49.744;8.118;2023-04-01T04:19:10;10.10;99.90
7936;DHT22;4013;49.744;8.118;2023-04-01T04:21:37;10.00;99.90
7936;DHT22;4013;49.744;8.118;2023-04-01T04:24:06;10.00;99.90
7936;DHT22;4013;49.744;8.118;2023-04-01T04:26:33;10.00;99.90
7936;DHT22;4013;49.744;8.118;2023-04-01T04:29:00;10.00;99.90
7936;DHT22;4013;49.744;8.118;2023-04-01T04:31:27;10.00;99.90
7936;DHT22;4013;49.744;8.118;2023-04-01T04:33:54;10.00;99.90
7936;DHT22;4013;49.744;8.118;2023-04-01T04:36:22;10.00;99.90
7936;DHT22;4013;49.744;8.118;2023-04-01T04:38:49;10.00;99.90
7936;DHT22;4013;49.744;8.118;2023-04-01T04:41:18;10.00;99.90
7936;DHT22;4013;49.744;8.118;2023-04-01T04:43:51;10.00;99.90
7936;DHT22;4013;49.744;8.118;2023-04-01T04:46:19;9.90;99.90
7936;DHT22;4013;49.744;8.118;2023-04-01T04:48:46;9.90;99.90
7936;DHT22;4013;49.744;8.118;2023-04-01T04:51:14;9.90;99.90
7936;DHT22;4013;49.744;8.118;2023-04-01T04:53:42;9.90;99.90
7936;DHT22;4013;49.744;8.118;2023-04-01T04:56:09;9.90;99.90
7936;DHT22;4013;49.744;8.118;2023-04-01T04:58:39;9.90;99.90
7936;DHT22;4013;49.744;8.118;2023-04-01T05:01:07;9.80;99.90
7936;DHT22;4013;49.744;8.118;2023-04-01T05:03:34;9.80;99.90
7936;DHT22;4013;49.744;8.118;2023-04-01T05:06:01;9.80;99.90
7936;DHT22;4013;49.744;8.118;2023-04-01T05:08:28;9.80;99.90
7936;DHT22;4013;49.744;8.118;2023-04-01T05:10:55;9.80;99.90
7936;DHT22;4013;49.744;8.118;2023-04-01T05:13:22;9.80;99.90
7936;DHT22;4013;49.744;8.118;2023-04-01T05:15:50;9.80;99.90
7936;DHT22;4013;49.744;8.118;2023-04-01T05:18:17;9.70;99.90
7936;DHT22;4013;49.744;8.118;2023-04-01T05:20:48;9.80;99.90
7936;DHT22;4013;49.744;8.118;2023-04-01T05:23:15;9.80;99.90
7936;DHT22;4013;49.744;8.118;2023-04-01T05:25:42;9.90;99.90
7936;DHT22;4013;49.744;8.118;2023-04-01T05:28:10;9.90;99.90
7936;DHT22;4013;49.744;8.118;2023-04-01T05:30:39;9.80;99.90
7936;DHT22;4013;49.744;8.118;2023-04-01T05:33:08;9.80;99.90
7936;DHT22;4013;49.744;8.118;2023-04-01T05:35:35;9.80;99.90
7936;DHT22;4013;49.744;8.118;2023-04-01T05:38:02;9.80;99.90
7936;DHT22;4013;49.744;8.118;2023-04-01T05:40:30;9.80;99.90
7936;DHT22;4013;49.744;8.118;2023-04-01T05:42:57;9.80;99.90
7936;DHT22;4013;49.744;8.118;2023-04-01T05:45:25;9.80;99.90
7936;DHT22;4013;49.744;8.118;2023-04-01T05:47:52;9.80;99.90
7936;DHT22;4013;49.744;8.118;2023-04-01T05:50:20;9.80;99.90
7936;DHT22;4013;49.744;8.118;2023-04-01T05:52:47;9.70;99.90
7936;DHT22;4013;49.744;8.118;2023-04-01T05:55:14;9.80;99.90
7936;DHT22;4013;49.744;8.118;2023-04-01T05:57:41;9.80;99.90
7936;DHT22;4013;49.744;8.118;2023-04-01T06:00:09;9.80;99.90
7936;DHT22;4013;49.744;8.118;2023-04-01T06:02:36;9.80;99.90
7936;DHT22;4013;49.744;8.118;2023-04-01T06:05:13;9.80;99.90
7936;DHT22;4013;49.744;8.118;2023-04-01T06:07:42;9.80;99.90
7936;DHT22;4013;49.744;8.118;2023-04-01T06:10:13;9.80;99.90
7936;DHT22;4013;49.744;8.118;2023-04-01T06:12:45;9.80;99.90
7936;DHT22;4013;49.744;8.118;2023-04-01T06:15:21;9.80;99.90
7936;DHT22;4013;49.744;8.118;2023-04-01T06:18:00;9.90;99.90
7936;DHT22;4013;49.744;8.118;2023-04-01T06:20:41;9.90;99.90
7936;DHT22;4013;49.744;8.118;2023-04-01T06:23:22;9.90;99.90
7936;DHT22;4013;49.744;8.118;2023-04-01T06:26:10;9.90;99.90
7936;DHT22;4013;49.744;8.118;2023-04-01T06:29:17;9.90;99.90
7936;DHT22;4013;49.744;8.118;2023-04-01T06:32:14;9.90;99.90
7936;DHT22;4013;49.744;8.118;2023-04-01T06:35:11;9.90;99.90
7936;DHT22;4013;49.744;8.118;2023-04-01T06:40:57;9.90;99.90
7936;DHT22;4013;49.744;8.118;2023-04-01T06:43:37;9.90;99.90
7936;DHT22;4013;49.744;8.118;2023-04-01T06:46:11;9.90;99.90
7936;DHT22;4013;49.744;8.118;2023-04-01T06:48:59;9.90;99.90
7936;DHT22;4013;49.744;8.118;2023-04-01T06:51:38;9.90;99.90
7936;DHT22;4013;49.744;8.118;2023-04-01T06:54:10;9.90;99.90
7936;DHT22;4013;49.744;8.118;2023-04-01T06:56:41;9.80;99.90
7936;DHT22;4013;49.744;8.118;2023-04-01T06:59:15;9.90;99.90
7936;DHT22;4013;49.744;8.118;2023-04-01T07:01:47;9.90;99.90
7936;DHT22;4013;49.744;8.118;2023-04-01T07:04:16;10.00;99.90
7936;DHT22;4013;49.744;8.118;2023-04-01T07:06:48;10.00;99.90
7936;DHT22;4013;49.744;8.118;2023-04-01T07:09:19;10.00;99.90
7936;DHT22;4013;49.744;8.118;2023-04-01T07:11:50;10.10;99.90
7936;DHT22;4013;49.744;8.118;2023-04-01T07:14:24;10.10;99.90
7936;DHT22;4013;49.744;8.118;2023-04-01T07:16:56;10.20;99.90
7936;DHT22;4013;49.744;8.118;2023-04-01T07:19:29;10.20;99.90
7936;DHT22;4013;49.744;8.118;2023-04-01T07:22:01;10.20;99.90
7936;DHT22;4013;49.744;8.118;2023-04-01T07:24:34;10.30;99.90
7936;DHT22;4013;49.744;8.118;2023-04-01T07:27:02;10.30;99.90
7936;DHT22;4013;49.744;8.118;2023-04-01T07:29:29;10.40;99.90
7936;DHT22;4013;49.744;8.118;2023-04-01T07:32:19;10.40;99.90
7936;DHT22;4013;49.744;8.118;2023-04-01T07:34:56;10.40;99.90
7936;DHT22;4013;49.744;8.118;2023-04-01T07:37:31;10.50;99.90
7936;DHT22;4013;49.744;8.118;2023-04-01T07:40:09;10.50;99.90
7936;DHT22;4013;49.744;8.118;2023-04-01T07:42:49;10.50;99.90
7936;DHT22;4013;49.744;8.118;2023-04-01T07:45:24;10.50;99.90
7936;DHT22;4013;49.744;8.118;2023-04-01T07:48:06;10.50;99.90
7936;DHT22;4013;49.744;8.118;2023-04-01T07:50:40;10.50;99.90
7936;DHT22;4013;49.744;8.118;2023-04-01T07:53:13;10.60;99.90
7936;DHT22;4013;49.744;8.118;2023-04-01T07:55:46;10.50;99.90
7936;DHT22;4013;49.744;8.118;2023-04-01T07:58:21;10.50;99.90
7936;DHT22;4013;49.744;8.118;2023-04-01T08:00:54;10.50;99.90
7936;DHT22;4013;49.744;8.118;2023-04-01T08:03:43;10.50;99.90
7936;DHT22;4013;49.744;8.118;2023-04-01T08:06:18;10.50;99.90
7936;DHT22;4013;49.744;8.118;2023-04-01T08:08:56;10.60;99.90
7936;DHT22;4013;49.744;8.118;2023-04-01T08:11:34;10.70;99.90
7936;DHT22;4013;49.744;8.118;2023-04-01T08:14:12;10.70;99.90
7936;DHT22;4013;49.744;8.118;2023-04-01T08:16:48;10.70;99.90
7936;DHT22;4013;49.744;8.118;2023-04-01T08:19:25;10.80;99.90
7936;DHT22;4013;49.744;8.118;2023-04-01T08:21:58;10.70;99.90
7936;DHT22;4013;49.744;8.118;2023-04-01T08:24:29;10.80;99.90
7936;DHT22;4013;49.744;8.118;2023-04-01T08:27:03;10.80;99.90
7936;DHT22;4013;49.744;8.118;2023-04-01T08:29:38;10.80;99.90
7936;DHT22;4013;49.744;8.118;2023-04-01T08:32:10;10.90;99.90
7936;DHT22;4013;49.744;8.118;2023-04-01T08:34:39;10.90;99.90
7936;DHT22;4013;49.744;8.118;2023-04-01T08:37:10;10.90;99.90
7936;DHT22;4013;49.744;8.118;2023-04-01T08:39:41;11.00;99.90
7936;DHT22;4013;49.744;8.118;2023-04-01T08:42:31;11.00;99.90
7936;DHT22;4013;49.744;8.118;2023-04-01T08:45:25;11.10;99.90
7936;DHT22;4013;49.744;8.118;2023-04-01T08:48:23;11.10;99.90
7936;DHT22;4013;49.744;8.118;2023-04-01T08:53:59;11.00;99.90
7936;DHT22;4013;49.744;8.118;2023-04-01T08:56:36;11.00;99.90
7936;DHT22;4013;49.744;8.118;2023-04-01T08:59:30;11.10;99.90
7936;DHT22;4013;49.744;8.118;2023-04-01T09:02:25;11.10;99.90
7936;DHT22;4013;49.744;8.118;2023-04-01T09:07:56;11.10;99.90
7936;DHT22;4013;49.744;8.118;2023-04-01T09:10:47;11.20;99.90
7936;DHT22;4013;49.744;8.118;2023-04-01T09:13:32;11.20;99.90
7936;DHT22;4013;49.744;8.118;2023-04-01T09:16:29;11.20;99.90
7936;DHT22;4013;49.744;8.118;2023-04-01T09:19:15;11.30;99.90
7936;DHT22;4013;49.744;8.118;2023-04-01T09:22:07;11.20;99.90
7936;DHT22;4013;49.744;8.118;2023-04-01T09:25:12;11.20;99.90
7936;DHT22;4013;49.744;8.118;2023-04-01T09:27:45;11.20;99.90
7936;DHT22;4013;49.744;8.118;2023-04-01T09:30:33;11.30;99.90
7936;DHT22;4013;49.744;8.118;2023-04-01T09:33:43;11.20;99.90
7936;DHT22;4013;49.744;8.118;2023-04-01T09:36:22;11.30;99.90
7936;DHT22;4013;49.744;8.118;2023-04-01T09:38:57;11.30;99.90
7936;DHT22;4013;49.744;8.118;2023-04-01T09:41:29;11.40;99.90
7936;DHT22;4013;49.744;8.118;2023-04-01T09:44:04;11.40;99.90
7936;DHT22;4013;49.744;8.118;2023-04-01T09:46:54;11.50;99.90
7936;DHT22;4013;49.744;8.118;2023-04-01T09:49:40;11.50;99.90
7936;DHT22;4013;49.744;8.118;2023-04-01T09:52:20;11.60;99.90
7936;DHT22;4013;49.744;8.118;2023-04-01T09:55:02;11.60;99.90
7936;DHT22;4013;49.744;8.118;2023-04-01T09:57:59;11.60;99.90
7936;DHT22;4013;49.744;8.118;2023-04-01T10:00:45;11.60;99.90
7936;DHT22;4013;49.744;8.118;2023-04-01T10:03:50;11.60;99.90
7936;DHT22;4013;49.744;8.118;2023-04-01T10:06:50;11.70;99.90
7936;DHT22;4013;49.744;8.118;2023-04-01T10:15:53;12.00;99.90
7936;DHT22;4013;49.744;8.118;2023-04-01T10:18:56;12.10;99.90
7936;DHT22;4013;49.744;8.118;2023-04-01T10:27:58;12.10;99.90
7936;DHT22;4013;49.744;8.118;2023-04-01T10:31:14;12.20;99.90
7936;DHT22;4013;49.744;8.118;2023-04-01T10:34:25;12.30;99.90
7936;DHT22;4013;49.744;8.118;2023-04-01T10:36:56;12.20;99.90
7936;DHT22;4013;49.744;8.118;2023-04-01T10:39:53;12.10;99.90
7936;DHT22;4013;49.744;8.118;2023-04-01T10:43:06;12.00;99.90
7936;DHT22;4013;49.744;8.118;2023-04-01T10:52:23;11.70;99.90
7936;DHT22;4013;49.744;8.118;2023-04-01T10:55:14;11.70;99.90
7936;DHT22;4013;49.744;8.118;2023-04-01T11:07:27;11.50;99.90
7936;DHT22;4013;49.744;8.118;2023-04-01T11:16:23;11.40;99.90
7936;DHT22;4013;49.744;8.118;2023-04-01T11:25:36;11.40;99.90
7936;DHT22;4013;49.744;8.118;2023-04-01T11:28:18;11.40;99.90
7936;DHT22;4013;49.744;8.118;2023-04-01T11:31:10;11.50;99.90
7936;DHT22;4013;49.744;8.118;2023-04-01T11:33:46;11.50;99.90
7936;DHT22;4013;49.744;8.118;2023-04-01T11:36:23;11.50;99.90
7936;DHT22;4013;49.744;8.118;2023-04-01T11:39:01;11.40;99.90
7936;DHT22;4013;49.744;8.118;2023-04-01T11:41:39;11.40;99.90
7936;DHT22;4013;49.744;8.118;2023-04-01T11:44:16;11.40;99.90
7936;DHT22;4013;49.744;8.118;2023-04-01T11:46:59;11.50;99.90
7936;DHT22;4013;49.744;8.118;2023-04-01T11:49:36;11.60;99.90
7936;DHT22;4013;49.744;8.118;2023-04-01T11:52:20;11.70;99.90
7936;DHT22;4013;49.744;8.118;2023-04-01T11:55:00;11.60;99.90
7936;DHT22;4013;49.744;8.118;2023-04-01T11:57:53;11.60;99.90
7936;DHT22;4013;49.744;8.118;2023-04-01T12:03:33;11.70;99.90
7936;DHT22;4013;49.744;8.118;2023-04-01T12:06:05;11.80;99.90
7936;DHT22;4013;49.744;8.118;2023-04-01T12:08:42;11.90;99.90
7936;DHT22;4013;49.744;8.118;2023-04-01T12:11:15;11.90;99.90
7936;DHT22;4013;49.744;8.118;2023-04-01T12:13:51;11.90;99.90
7936;DHT22;4013;49.744;8.118;2023-04-01T12:16:27;11.80;99.90
7936;DHT22;4013;49.744;8.118;2023-04-01T12:19:01;11.80;99.90
7936;DHT22;4013;49.744;8.118;2023-04-01T12:21:36;11.70;99.90
7936;DHT22;4013;49.744;8.118;2023-04-01T12:24:33;11.70;99.90
7936;DHT22;4013;49.744;8.118;2023-04-01T12:27:35;11.60;99.90
7936;DHT22;4013;49.744;8.118;2023-04-01T12:30:20;11.60;99.90
7936;DHT22;4013;49.744;8.118;2023-04-01T12:32:59;11.60;99.90
7936;DHT22;4013;49.744;8.118;2023-04-01T12:35:37;11.60;99.90
7936;DHT22;4013;49.744;8.118;2023-04-01T12:38:17;11.60;99.90
7936;DHT22;4013;49.744;8.118;2023-04-01T12:41:02;11.70;99.90
7936;DHT22;4013;49.744;8.118;2023-04-01T12:43:54;11.70;99.90
7936;DHT22;4013;49.744;8.118;2023-04-01T12:46:30;11.60;99.90
7936;DHT22;4013;49.744;8.118;2023-04-01T12:49:22;11.60;99.90
7936;DHT22;4013;49.744;8.118;2023-04-01T12:52:05;11.60;99.90
7936;DHT22;4013;49.744;8.118;2023-04-01T12:55:08;11.60;99.90
7936;DHT22;4013;49.744;8.118;2023-04-01T12:58:13;11.60;99.90
7936;DHT22;4013;49.744;8.118;2023-04-01T13:06:57;11.60;99.90
7936;DHT22;4013;49.744;8.118;2023-04-01T13:09:34;11.60;99.90
7936;DHT22;4013;49.744;8.118;2023-04-01T13:12:24;11.60;99.90
7936;DHT22;4013;49.744;8.118;2023-04-01T13:15:20;11.60;99.90
7936;DHT22;4013;49.744;8.118;2023-04-01T13:17:53;11.60;99.90
7936;DHT22;4013;49.744;8.118;2023-04-01T13:20:36;11.60;99.90
7936;DHT22;4013;49.744;8.118;2023-04-01T13:23:17;11.60;99.90
7936;DHT22;4013;49.744;8.118;2023-04-01T13:25:51;11.50;99.90
7936;DHT22;4013;49.744;8.118;2023-04-01T13:28:24;11.60;99.90
7936;DHT22;4013;49.744;8.118;2023-04-01T13:30:58;11.60;99.90
7936;DHT22;4013;49.744;8.118;2023-04-01T13:33:38;11.50;99.90
7936;DHT22;4013;49.744;8.118;2023-04-01T13:36:17;11.50;99.90
7936;DHT22;4013;49.744;8.118;2023-04-01T13:39:03;11.50;99.90
7936;DHT22;4013;49.744;8.118;2023-04-01T13:41:47;11.40;99.90
7936;DHT22;4013;49.744;8.118;2023-04-01T13:44:21;11.30;99.90
7936;DHT22;4013;49.744;8.118;2023-04-01T13:47:19;11.30;99.90
7936;DHT22;4013;49.744;8.118;2023-04-01T13:55:54;11.20;99.90
7936;DHT22;4013;49.744;8.118;2023-04-01T14:01:35;11.20;99.90
7936;DHT22;4013;49.744;8.118;2023-04-01T14:04:30;11.20;99.90
7936;DHT22;4013;49.744;8.118;2023-04-01T14:07:11;11.10;99.90
7936;DHT22;4013;49.744;8.118;2023-04-01T14:10:11;11.10;99.90
7936;DHT22;4013;49.744;8.118;2023-04-01T14:12:48;11.10;99.90
7936;DHT22;4013;49.744;8.118;2023-04-01T14:15:28;11.10;99.90
7936;DHT22;4013;49.744;8.118;2023-04-01T14:18:19;11.10;99.90
7936;DHT22;4013;49.744;8.118;2023-04-01T14:20:53;11.10;99.90
7936;DHT22;4013;49.744;8.118;2023-04-01T14:23:35;11.10;99.90
7936;DHT22;4013;49.744;8.118;2023-04-01T14:26:27;11.20;99.90
7936;DHT22;4013;49.744;8.118;2023-04-01T14:29:03;11.20;99.90
7936;DHT22;4013;49.744;8.118;2023-04-01T14:31:43;11.20;99.90
7936;DHT22;4013;49.744;8.118;2023-04-01T14:34:24;11.40;99.90
7936;DHT22;4013;49.744;8.118;2023-04-01T14:37:05;11.50;99.90
7936;DHT22;4013;49.744;8.118;2023-04-01T14:45:35;11.70;99.90
7936;DHT22;4013;49.744;8.118;2023-04-01T14:48:17;11.70;99.90
7936;DHT22;4013;49.744;8.118;2023-04-01T14:50:51;11.90;99.90
7936;DHT22;4013;49.744;8.118;2023-04-01T14:53:27;12.10;99.90
7936;DHT22;4013;49.744;8.118;2023-04-01T14:55:55;12.10;99.90
7936;DHT22;4013;49.744;8.118;2023-04-01T14:58:24;12.00;99.90
7936;DHT22;4013;49.744;8.118;2023-04-01T15:01:07;12.00;99.90
7936;DHT22;4013;49.744;8.118;2023-04-01T15:03:39;11.90;99.90
7936;DHT22;4013;49.744;8.118;2023-04-01T15:06:30;11.90;99.90
7936;DHT22;4013;49.744;8.118;2023-04-01T15:09:07;11.90;99.90
7936;DHT22;4013;49.744;8.118;2023-04-01T15:11:48;12.00;99.90
7936;DHT22;4013;49.744;8.118;2023-04-01T15:17:28;12.10;99.90
7936;DHT22;4013;49.744;8.118;2023-04-01T15:20:10;12.00;99.90
7936;DHT22;4013;49.744;8.118;2023-04-01T15:22:55;11.90;99.90
7936;DHT22;4013;49.744;8.118;2023-04-01T15:25:43;11.90;99.90
7936;DHT22;4013;49.744;8.118;2023-04-01T15:28:20;11.80;99.90
7936;DHT22;4013;49.744;8.118;2023-04-01T15:30:55;11.70;99.90
7936;DHT22;4013;49.744;8.118;2023-04-01T15:33:41;11.60;99.90
7936;DHT22;4013;49.744;8.118;2023-04-01T15:36:20;11.60;99.90
7936;DHT22;4013;49.744;8.118;2023-04-01T15:38:53;11.60;99.90
7936;DHT22;4013;49.744;8.118;2023-04-01T15:41:35;11.60;99.90
7936;DHT22;4013;49.744;8.118;2023-04-01T15:44:03;11.60;99.90
7936;DHT22;4013;49.744;8.118;2023-04-01T15:46:44;11.70;99.90
7936;DHT22;4013;49.744;8.118;2023-04-01T15:49:32;11.70;99.90
7936;DHT22;4013;49.744;8.118;2023-04-01T15:52:10;11.90;99.90
7936;DHT22;4013;49.744;8.118;2023-04-01T15:55:08;11.90;99.90
7936;DHT22;4013;49.744;8.118;2023-04-01T15:57:47;12.00;99.90
7936;DHT22;4013;49.744;8.118;2023-04-01T16:00:26;12.00;99.90
7936;DHT22;4013;49.744;8.118;2023-04-01T16:03:18;11.90;99.90
7936;DHT22;4013;49.744;8.118;2023-04-01T16:06:08;11.90;99.90
7936;DHT22;4013;49.744;8.118;2023-04-01T16:08:59;11.80;99.90
7936;DHT22;4013;49.744;8.118;2023-04-01T16:11:36;11.80;99.90
7936;DHT22;4013;49.744;8.118;2023-04-01T16:14:18;11.70;99.90
7936;DHT22;4013;49.744;8.118;2023-04-01T16:16:59;11.70;99.90
7936;DHT22;4013;49.744;8.118;2023-04-01T16:19:39;11.80;99.90
7936;DHT22;4013;49.744;8.118;2023-04-01T16:22:13;11.80;99.90
7936;DHT22;4013;49.744;8.118;2023-04-01T16:24:45;11.80;99.90
7936;DHT22;4013;49.744;8.118;2023-04-01T16:27:18;11.80;99.90
7936;DHT22;4013;49.744;8.118;2023-04-01T16:29:48;11.80;99.90
7936;DHT22;4013;49.744;8.118;2023-04-01T16:32:23;11.70;99.90
7936;DHT22;4013;49.744;8.118;2023-04-01T16:35:04;11.70;99.90
7936;DHT22;4013;49.744;8.118;2023-04-01T16:37:43;11.70;99.90
7936;DHT22;4013;49.744;8.118;2023-04-01T16:40:24;11.70;99.90
7936;DHT22;4013;49.744;8.118;2023-04-01T16:42:53;11.80;99.90
7936;DHT22;4013;49.744;8.118;2023-04-01T16:45:33;11.70;99.90
7936;DHT22;4013;49.744;8.118;2023-04-01T16:48:07;11.70;99.90
7936;DHT22;4013;49.744;8.118;2023-04-01T16:50:48;11.70;99.90
7936;DHT22;4013;49.744;8.118;2023-04-01T16:53:29;11.60;99.90
7936;DHT22;4013;49.744;8.118;2023-04-01T16:56:07;11.60;99.90
7936;DHT22;4013;49.744;8.118;2023-04-01T16:58:37;11.60;99.90
7936;DHT22;4013;49.744;8.118;2023-04-01T17:01:09;11.60;99.90
7936;DHT22;4013;49.744;8.118;2023-04-01T17:03:41;11.50;99.90
7936;DHT22;4013;49.744;8.118;2023-04-01T17:06:28;11.50;99.90
7936;DHT22;4013;49.744;8.118;2023-04-01T17:09:13;11.40;99.90
7936;DHT22;4013;49.744;8.118;2023-04-01T17:11:47;11.40;99.90
7936;DHT22;4013;49.744;8.118;2023-04-01T17:14:23;11.30;99.90
7936;DHT22;4013;49.744;8.118;2023-04-01T17:17:15;11.30;99.90
7936;DHT22;4013;49.744;8.118;2023-04-01T17:20:01;11.30;99.90
7936;DHT22;4013;49.744;8.118;2023-04-01T17:22:36;11.30;99.90
7936;DHT22;4013;49.744;8.118;2023-04-01T17:25:31;11.20;99.90
7936;DHT22;4013;49.744;8.118;2023-04-01T17:28:07;11.20;99.90
7936;DHT22;4013;49.744;8.118;2023-04-01T17:30:39;11.10;99.90
7936;DHT22;4013;49.744;8.118;2023-04-01T17:33:23;11.10;99.90
7936;DHT22;4013;49.744;8.118;2023-04-01T17:35:58;11.10;99.90
7936;DHT22;4013;49.744;8.118;2023-04-01T17:38:41;11.00;99.90
7936;DHT22;4013;49.744;8.118;2023-04-01T17:41:20;11.00;99.90
7936;DHT22;4013;49.744;8.118;2023-04-01T17:43:54;11.00;99.90
7936;DHT22;4013;49.744;8.118;2023-04-01T17:46:32;11.00;99.90
7936;DHT22;4013;49.744;8.118;2023-04-01T17:49:14;11.00;99.90
7936;DHT22;4013;49.744;8.118;2023-04-01T17:51:50;10.90;99.90
7936;DHT22;4013;49.744;8.118;2023-04-01T17:54:23;10.80;99.90
7936;DHT22;4013;49.744;8.118;2023-04-01T17:57:02;10.70;99.90
7936;DHT22;4013;49.744;8.118;2023-04-01T17:59:36;10.80;99.90
7936;DHT22;4013;49.744;8.118;2023-04-01T18:02:15;10.70;99.90
7936;DHT22;4013;49.744;8.118;2023-04-01T18:05:14;10.70;99.90
7936;DHT22;4013;49.744;8.118;2023-04-01T18:08:06;10.70;99.90
7936;DHT22;4013;49.744;8.118;2023-04-01T18:10:41;10.70;99.90
7936;DHT22;4013;49.744;8.118;2023-04-01T18:13:33;10.70;99.90
7936;DHT22;4013;49.744;8.118;2023-04-01T18:16:15;10.60;99.90
7936;DHT22;4013;49.744;8.118;2023-04-01T18:18:50;10.60;99.90
7936;DHT22;4013;49.744;8.118;2023-04-01T18:21:29;10.60;99.90
7936;DHT22;4013;49.744;8.118;2023-04-01T18:23:59;10.60;99.90